createdAt,value
2023-05-29T00:00:14.456Z,14.98
2023-05-29T00:02:45.545Z,14.98
2023-05-29T00:05:13.860Z,14.93
2023-05-29T00:07:42.525Z,15.05
2023-05-29T00:10:11.236Z,14.95
2023-05-29T00:12:39.482Z,14.86
2023-05-29T00:15:07.724Z,14.83
2023-05-29T00:17:35.022Z,14.85
2023-05-29T00:20:06.938Z,14.74
2023-05-29T00:22:34.487Z,14.75
2023-05-29T00:25:01.821Z,14.84
2023-05-29T00:27:28.994Z,14.82
2023-05-29T00:29:56.638Z,14.78
2023-05-29T00:32:24.675Z,14.70
2023-05-29T00:34:52.678Z,14.80
2023-05-29T00:37:22.885Z,14.90
2023-05-29T00:39:50.353Z,15.10
2023-05-29T00:42:17.778Z,15.12
2023-05-29T00:44:45.505Z,15.35
2023-05-29T00:47:13.114Z,15.22
2023-05-29T00:49:40.594Z,15.20
2023-05-29T00:52:09.096Z,15.21
2023-05-29T00:54:36.438Z,15.16
2023-05-29T00:57:05.515Z,15.26
2023-05-29T00:59:34.334Z,15.30
2023-05-29T01:02:03.739Z,15.39
2023-05-29T01:04:34.711Z,15.34
2023-05-29T01:07:03.534Z,15.24
2023-05-29T01:09:31.686Z,15.26
2023-05-29T01:12:09.032Z,15.32
2023-05-29T01:14:55.385Z,15.38
2023-05-29T01:17:27.081Z,15.22
2023-05-29T01:20:08.072Z,15.13
2023-05-29T01:23:08.654Z,15.11
2023-05-29T01:26:21.328Z,15.08
2023-05-29T01:28:49.775Z,15.16
2023-05-29T01:31:21.096Z,15.12
2023-05-29T01:33:59.676Z,15.10
2023-05-29T01:36:27.782Z,15.09
2023-05-29T01:38:56.766Z,15.06
2023-05-29T01:41:25.160Z,15.02
2023-05-29T01:43:54.093Z,14.95
2023-05-29T01:46:22.065Z,14.92
2023-05-29T01:48:49.996Z,14.88
2023-05-29T01:51:17.621Z,14.86
2023-05-29T01:53:45.384Z,14.74
2023-05-29T01:56:12.804Z,14.59
2023-05-29T01:58:41.517Z,14.47
2023-05-29T02:01:09.054Z,14.45
2023-05-29T02:03:36.837Z,14.39
2023-05-29T02:06:04.153Z,14.31
2023-05-29T02:08:31.656Z,14.26
2023-05-29T02:10:59.163Z,14.14
2023-05-29T02:13:26.633Z,14.11
2023-05-29T02:15:53.899Z,14.02
2023-05-29T02:18:21.405Z,13.96
2023-05-29T02:20:48.835Z,13.93
2023-05-29T02:23:21.035Z,13.89
2023-05-29T02:25:48.242Z,13.95
2023-05-29T02:28:15.672Z,13.92
2023-05-29T02:30:43.227Z,13.87
2023-05-29T02:33:10.509Z,13.85
2023-05-29T02:35:37.992Z,13.79
2023-05-29T02:38:05.402Z,13.80
2023-05-29T02:40:32.551Z,13.83
2023-05-29T02:42:59.734Z,13.75
2023-05-29T02:45:27.180Z,13.80
2023-05-29T02:47:54.747Z,13.78
2023-05-29T02:50:21.988Z,13.87
2023-05-29T02:52:49.520Z,13.82
2023-05-29T02:55:16.839Z,13.83
2023-05-29T02:57:44.059Z,13.82
2023-05-29T03:00:12.433Z,13.90
2023-05-29T03:02:40.026Z,13.87
2023-05-29T03:05:07.868Z,13.94
2023-05-29T03:07:35.490Z,14.03
2023-05-29T03:10:02.718Z,14.09
2023-05-29T03:12:30.556Z,14.15
2023-05-29T03:14:58.357Z,14.29
2023-05-29T03:17:26.795Z,14.40
2023-05-29T03:19:54.322Z,14.47
2023-05-29T03:22:21.855Z,14.63
2023-05-29T03:24:49.033Z,14.74
2023-05-29T03:27:16.277Z,14.93
2023-05-29T03:29:44.070Z,15.28
2023-05-29T03:32:12.446Z,15.70
2023-05-29T03:34:41.106Z,16.08
2023-05-29T03:37:08.823Z,16.47
2023-05-29T03:39:36.673Z,17.00
2023-05-29T03:42:04.437Z,17.48
2023-05-29T03:44:32.219Z,17.86
2023-05-29T03:46:59.423Z,18.41
2023-05-29T03:49:26.567Z,18.62
2023-05-29T03:51:54.304Z,19.05
2023-05-29T03:54:21.667Z,19.69
2023-05-29T03:56:48.973Z,20.36
2023-05-29T03:59:17.513Z,20.61
2023-05-29T04:01:47.528Z,20.54
2023-05-29T04:04:15.291Z,20.93
2023-05-29T04:06:42.814Z,21.36
2023-05-29T04:09:10.068Z,21.41
2023-05-29T04:11:37.641Z,21.49
2023-05-29T04:14:04.772Z,21.37
2023-05-29T04:16:32.034Z,20.99
2023-05-29T04:19:00.867Z,20.55
2023-05-29T04:21:28.218Z,20.10
2023-05-29T04:23:55.412Z,19.98
2023-05-29T04:26:26.984Z,19.71
2023-05-29T04:28:58.580Z,19.82
2023-05-29T04:31:27.185Z,19.48
2023-05-29T04:33:58.619Z,19.00
2023-05-29T04:36:27.072Z,19.00
2023-05-29T04:38:56.186Z,19.17
2023-05-29T04:41:24.562Z,18.96
2023-05-29T04:43:52.735Z,18.87
2023-05-29T04:46:20.442Z,19.02
2023-05-29T04:48:48.976Z,18.49
2023-05-29T04:51:17.789Z,18.66
2023-05-29T04:53:45.091Z,18.63
2023-05-29T04:56:12.420Z,19.00
2023-05-29T04:58:39.974Z,18.99
2023-05-29T05:01:09.149Z,19.61
2023-05-29T05:03:38.496Z,20.45
2023-05-29T05:06:08.715Z,22.06
2023-05-29T05:08:36.896Z,23.83
2023-05-29T05:11:07.371Z,25.16
2023-05-29T05:13:34.844Z,27.40
2023-05-29T05:16:03.408Z,27.68
2023-05-29T05:18:30.697Z,29.13
2023-05-29T05:20:58.893Z,28.85
2023-05-29T05:23:26.548Z,29.46
2023-05-29T05:25:53.681Z,30.31
2023-05-29T05:28:21.177Z,27.76
2023-05-29T05:30:48.568Z,27.46
2023-05-29T05:33:15.843Z,30.15
2023-05-29T05:35:43.582Z,30.00
2023-05-29T05:38:10.920Z,29.08
2023-05-29T05:40:38.196Z,30.80
2023-05-29T05:43:07.307Z,28.43
2023-05-29T05:45:43.121Z,29.05
2023-05-29T05:48:11.008Z,28.72
2023-05-29T05:50:38.437Z,29.89
2023-05-29T05:53:05.801Z,29.17
2023-05-29T05:55:33.736Z,28.71
2023-05-29T05:58:00.930Z,28.08
2023-05-29T06:00:29.321Z,28.12
2023-05-29T06:02:57.837Z,27.73
2023-05-29T06:05:28.234Z,28.03
2023-05-29T06:07:55.657Z,29.39
2023-05-29T06:10:23.448Z,27.57
2023-05-29T06:12:50.866Z,30.48
2023-05-29T06:15:18.865Z,27.79
2023-05-29T06:17:46.709Z,28.77
2023-05-29T06:20:15.936Z,29.97
2023-05-29T06:22:43.450Z,28.37
2023-05-29T06:25:10.957Z,29.27
2023-05-29T06:27:38.628Z,29.05
2023-05-29T06:30:07.946Z,30.44
2023-05-29T06:32:35.437Z,27.57
2023-05-29T06:35:02.865Z,28.18
2023-05-29T06:37:30.298Z,27.68
2023-05-29T06:39:57.719Z,28.75
2023-05-29T06:42:28.182Z,28.57
2023-05-29T06:44:56.939Z,29.89
2023-05-29T06:47:24.627Z,29.69
2023-05-29T06:49:51.843Z,29.48
2023-05-29T06:52:19.971Z,29.27
2023-05-29T06:54:51.145Z,28.82
2023-05-29T06:57:18.279Z,28.81
2023-05-29T06:59:48.361Z,29.09
2023-05-29T07:02:15.995Z,30.54
2023-05-29T07:04:47.076Z,28.22
2023-05-29T07:07:15.171Z,27.32
2023-05-29T07:09:42.689Z,28.95
2023-05-29T07:12:09.939Z,29.83
2023-05-29T07:14:37.752Z,31.38
2023-05-29T07:17:05.571Z,30.26
2023-05-29T07:19:36.773Z,27.47
2023-05-29T07:22:07.546Z,29.54
2023-05-29T07:24:34.846Z,30.30
2023-05-29T07:27:02.575Z,30.16
2023-05-29T07:29:31.098Z,28.27
2023-05-29T07:31:58.326Z,28.18
2023-05-29T07:34:25.816Z,26.67
2023-05-29T07:37:02.393Z,27.55
2023-05-29T07:39:29.990Z,25.69
2023-05-29T07:42:02.359Z,26.95
2023-05-29T07:44:30.211Z,26.86
2023-05-29T07:46:57.859Z,26.77
2023-05-29T07:49:25.981Z,26.57
2023-05-29T07:51:53.623Z,26.95
2023-05-29T07:54:22.559Z,27.47
2023-05-29T07:56:49.905Z,26.99
2023-05-29T07:59:18.428Z,25.94
2023-05-29T08:01:46.302Z,26.09
2023-05-29T08:04:16.869Z,27.44
2023-05-29T08:06:44.602Z,27.27
2023-05-29T08:09:11.963Z,26.01
2023-05-29T08:11:39.733Z,25.96
2023-05-29T08:14:07.200Z,26.01
2023-05-29T08:16:35.088Z,24.76
2023-05-29T08:19:02.810Z,24.23
2023-05-29T08:21:29.982Z,23.66
2023-05-29T08:23:57.362Z,23.25
2023-05-29T08:26:25.087Z,23.53
2023-05-29T08:28:52.393Z,24.49
2023-05-29T08:31:20.085Z,24.36
2023-05-29T08:33:47.651Z,23.42
2023-05-29T08:36:15.876Z,22.92
2023-05-29T08:38:43.330Z,23.88
2023-05-29T08:41:16.557Z,24.90
2023-05-29T08:43:44.409Z,25.34
2023-05-29T08:46:15.154Z,25.57
2023-05-29T08:48:44.694Z,25.72
2023-05-29T08:51:12.321Z,26.43
2023-05-29T08:53:39.953Z,26.09
2023-05-29T08:56:07.171Z,25.93
2023-05-29T08:58:35.620Z,25.24
2023-05-29T09:01:03.099Z,25.23
2023-05-29T09:03:31.932Z,25.07
2023-05-29T09:06:04.584Z,25.40
2023-05-29T09:08:32.840Z,25.40
2023-05-29T09:11:03.075Z,25.86
2023-05-29T09:13:30.940Z,25.83
2023-05-29T09:16:00.032Z,25.36
2023-05-29T09:18:33.492Z,25.91
2023-05-29T09:21:03.121Z,26.18
2023-05-29T09:23:31.165Z,26.06
2023-05-29T09:25:58.863Z,26.31
2023-05-29T09:28:28.068Z,27.02
2023-05-29T09:30:55.801Z,27.21
2023-05-29T09:33:23.286Z,26.50
2023-05-29T09:35:51.328Z,27.14
2023-05-29T09:38:37.856Z,27.35
2023-05-29T09:41:07.966Z,27.71
2023-05-29T09:43:35.864Z,28.10
2023-05-29T09:46:03.779Z,27.54
2023-05-29T09:48:32.026Z,27.89
2023-05-29T09:50:59.853Z,28.04
2023-05-29T09:53:30.038Z,28.54
2023-05-29T09:56:00.844Z,27.86
2023-05-29T09:58:29.864Z,27.83
2023-05-29T10:00:59.352Z,27.29
2023-05-29T10:03:36.098Z,26.97
2023-05-29T10:06:06.923Z,26.55
2023-05-29T10:08:37.546Z,26.64
2023-05-29T10:11:10.695Z,26.98
2023-05-29T10:13:40.047Z,26.46
2023-05-29T10:16:14.377Z,26.50
2023-05-29T10:18:46.750Z,26.60
2023-05-29T10:21:15.391Z,26.14
2023-05-29T10:23:46.071Z,25.63
2023-05-29T10:26:26.556Z,25.61
2023-05-29T10:29:03.171Z,25.38
2023-05-29T10:31:35.205Z,24.78
2023-05-29T10:34:24.729Z,24.77
2023-05-29T10:37:27.142Z,24.22
2023-05-29T10:39:54.829Z,24.24
2023-05-29T10:42:50.513Z,23.68
2023-05-29T10:45:33.852Z,23.54
2023-05-29T10:48:13.562Z,23.65
2023-05-29T10:50:44.695Z,23.69
2023-05-29T10:53:17.617Z,23.64
2023-05-29T10:55:46.505Z,23.78
2023-05-29T10:58:16.394Z,24.07
2023-05-29T11:00:43.752Z,24.32
2023-05-29T11:03:11.992Z,23.99
2023-05-29T11:06:07.699Z,23.48
2023-05-29T11:08:49.376Z,24.16
2023-05-29T11:11:18.223Z,24.23
2023-05-29T11:13:56.391Z,24.70
2023-05-29T11:16:27.109Z,24.92
2023-05-29T11:18:56.804Z,25.39
2023-05-29T11:21:28.540Z,25.11
2023-05-29T11:23:56.232Z,25.28
2023-05-29T11:26:25.161Z,25.42
2023-05-29T11:28:52.382Z,25.42
2023-05-29T11:31:22.038Z,25.26
2023-05-29T11:33:51.827Z,25.63
2023-05-29T11:36:20.954Z,25.75
2023-05-29T11:38:48.194Z,25.33
2023-05-29T11:41:18.399Z,26.24
2023-05-29T11:43:57.515Z,26.61
2023-05-29T11:46:24.794Z,26.41
2023-05-29T11:48:52.331Z,26.60
2023-05-29T11:51:19.660Z,26.51
2023-05-29T11:53:48.298Z,26.74
2023-05-29T11:56:16.090Z,27.07
2023-05-29T11:58:43.929Z,27.31
2023-05-29T12:01:11.375Z,26.89
2023-05-29T12:03:40.868Z,25.98
2023-05-29T12:06:10.065Z,26.22
2023-05-29T12:08:38.441Z,26.41
2023-05-29T12:11:06.488Z,26.64
2023-05-29T12:13:34.285Z,26.69
2023-05-29T12:16:03.868Z,26.83
2023-05-29T12:18:31.420Z,27.08
2023-05-29T12:21:02.699Z,27.51
2023-05-29T12:23:30.970Z,27.72
2023-05-29T12:26:00.095Z,28.22
2023-05-29T12:28:27.479Z,28.70
2023-05-29T12:30:59.992Z,28.18
2023-05-29T12:33:29.874Z,27.89
2023-05-29T12:36:08.203Z,27.54
2023-05-29T12:38:52.413Z,27.59
2023-05-29T12:41:30.887Z,27.42
2023-05-29T12:43:58.858Z,28.03
2023-05-29T12:46:27.115Z,27.74
2023-05-29T12:48:57.683Z,27.36
2023-05-29T12:51:28.700Z,27.61
2023-05-29T12:53:56.357Z,27.26
2023-05-29T12:56:24.980Z,26.98
2023-05-29T12:58:53.145Z,26.78
2023-05-29T13:01:23.044Z,26.17
2023-05-29T13:03:50.980Z,26.25
2023-05-29T13:06:19.001Z,26.65
2023-05-29T13:08:46.268Z,26.28
2023-05-29T13:11:13.471Z,26.12
2023-05-29T13:13:40.996Z,25.91
2023-05-29T13:16:08.400Z,26.50
2023-05-29T13:18:37.647Z,26.79
2023-05-29T13:21:06.915Z,26.58
2023-05-29T13:23:38.245Z,27.05
2023-05-29T13:26:06.478Z,27.15
2023-05-29T13:28:34.601Z,27.37
2023-05-29T13:31:04.017Z,27.24
2023-05-29T13:33:31.711Z,27.57
2023-05-29T13:36:02.062Z,27.64
2023-05-29T13:38:32.316Z,27.47
2023-05-29T13:41:02.917Z,27.09
2023-05-29T13:43:42.305Z,27.13
2023-05-29T13:46:16.847Z,26.93
2023-05-29T13:48:44.161Z,26.66
2023-05-29T13:51:11.752Z,26.73
2023-05-29T13:53:40.662Z,26.57
2023-05-29T13:56:07.894Z,26.42
2023-05-29T13:58:35.428Z,26.67
2023-05-29T14:01:04.400Z,26.72
2023-05-29T14:03:32.939Z,26.61
2023-05-29T14:06:00.558Z,26.44
2023-05-29T14:08:27.823Z,26.75
2023-05-29T14:10:55.336Z,27.17
2023-05-29T14:13:22.494Z,27.12
2023-05-29T14:15:52.293Z,27.37
2023-05-29T14:18:19.802Z,27.53
2023-05-29T14:20:49.550Z,27.33
2023-05-29T14:23:20.221Z,27.37
2023-05-29T14:25:47.769Z,27.20
2023-05-29T14:28:15.167Z,27.15
2023-05-29T14:30:42.364Z,26.55
2023-05-29T14:33:10.074Z,26.31
2023-05-29T14:35:37.312Z,26.23
2023-05-29T14:38:04.510Z,26.31
2023-05-29T14:40:32.401Z,25.92
2023-05-29T14:42:59.792Z,25.81
2023-05-29T14:45:27.132Z,25.89
2023-05-29T14:47:54.601Z,26.14
2023-05-29T14:50:21.918Z,26.16
2023-05-29T14:52:49.368Z,26.08
2023-05-29T14:55:16.897Z,25.92
2023-05-29T14:57:44.042Z,26.06
2023-05-29T15:00:11.582Z,26.00
2023-05-29T15:02:40.878Z,25.84
2023-05-29T15:05:08.569Z,26.09
2023-05-29T15:07:35.868Z,26.32
2023-05-29T15:10:04.442Z,26.23
2023-05-29T15:12:32.419Z,26.32
2023-05-29T15:14:59.667Z,26.23
2023-05-29T15:17:27.297Z,26.37
2023-05-29T15:19:54.600Z,25.99
2023-05-29T15:22:21.836Z,26.13
2023-05-29T15:24:49.368Z,26.64
2023-05-29T15:27:16.565Z,26.96
2023-05-29T15:29:43.870Z,27.21
2023-05-29T15:32:11.333Z,27.21
2023-05-29T15:34:41.521Z,27.38
2023-05-29T15:37:08.853Z,27.07
2023-05-29T15:39:38.865Z,26.89
2023-05-29T15:42:11.408Z,26.43
2023-05-29T15:44:38.925Z,26.08
2023-05-29T15:47:06.425Z,26.66
2023-05-29T15:49:34.453Z,26.66
2023-05-29T15:52:01.982Z,26.75
2023-05-29T15:54:29.159Z,26.32
2023-05-29T15:56:56.767Z,26.44
2023-05-29T15:59:24.248Z,26.37
2023-05-29T16:01:51.465Z,26.15
2023-05-29T16:04:18.983Z,26.09
2023-05-29T16:06:46.264Z,25.90
2023-05-29T16:09:14.351Z,25.89
2023-05-29T16:11:41.897Z,25.76
2023-05-29T16:14:09.620Z,25.63
2023-05-29T16:16:38.024Z,25.52
2023-05-29T16:19:07.140Z,25.40
2023-05-29T16:21:34.379Z,25.14
2023-05-29T16:24:01.555Z,25.21
2023-05-29T16:26:29.222Z,25.14
2023-05-29T16:28:56.748Z,25.09
2023-05-29T16:31:24.137Z,25.08
2023-05-29T16:33:51.779Z,24.99
2023-05-29T16:36:19.828Z,25.09
2023-05-29T16:38:47.006Z,25.33
2023-05-29T16:41:14.453Z,25.43
2023-05-29T16:43:41.961Z,25.31
2023-05-29T16:46:09.263Z,25.29
2023-05-29T16:48:40.422Z,25.31
2023-05-29T16:51:08.507Z,25.33
2023-05-29T16:53:36.821Z,25.37
2023-05-29T16:56:08.093Z,25.40
2023-05-29T16:58:36.072Z,25.27
2023-05-29T17:01:03.567Z,25.14
2023-05-29T17:03:30.927Z,25.27
2023-05-29T17:05:58.117Z,25.29
2023-05-29T17:08:25.589Z,25.33
2023-05-29T17:10:52.899Z,25.30
2023-05-29T17:13:20.114Z,25.29
2023-05-29T17:15:48.100Z,25.23
2023-05-29T17:18:15.239Z,25.02
2023-05-29T17:20:42.503Z,25.14
2023-05-29T17:23:10.622Z,25.09
2023-05-29T17:25:38.584Z,25.02
2023-05-29T17:28:07.761Z,25.00
2023-05-29T17:30:38.018Z,24.91
2023-05-29T17:33:05.720Z,24.75
2023-05-29T17:35:33.698Z,24.63
2023-05-29T17:38:01.999Z,24.49
2023-05-29T17:40:34.638Z,24.46
2023-05-29T17:43:02.201Z,24.37
2023-05-29T17:45:29.356Z,24.31
2023-05-29T17:47:59.614Z,24.21
2023-05-29T17:50:27.321Z,24.07
2023-05-29T17:52:54.455Z,23.88
2023-05-29T17:55:21.556Z,23.83
2023-05-29T17:57:51.266Z,23.78
2023-05-29T18:00:24.054Z,23.70
2023-05-29T18:02:51.800Z,23.64
2023-05-29T18:05:19.291Z,23.63
2023-05-29T18:07:52.214Z,23.62
2023-05-29T18:10:22.070Z,23.53
2023-05-29T18:12:49.212Z,23.45
2023-05-29T18:15:17.215Z,23.41
2023-05-29T18:17:45.427Z,23.37
2023-05-29T18:20:14.315Z,23.35
2023-05-29T18:22:41.508Z,23.26
2023-05-29T18:25:09.622Z,23.16
2023-05-29T18:27:36.825Z,23.06
2023-05-29T18:30:04.804Z,22.96
2023-05-29T18:32:36.478Z,22.88
2023-05-29T18:35:04.409Z,22.83
2023-05-29T18:37:32.116Z,22.75
2023-05-29T18:40:02.463Z,22.69
2023-05-29T18:42:29.657Z,22.63
2023-05-29T18:45:01.801Z,22.55
2023-05-29T18:47:28.963Z,22.56
2023-05-29T18:49:56.531Z,22.49
2023-05-29T18:52:23.874Z,22.48
2023-05-29T18:54:51.324Z,22.44
2023-05-29T18:57:18.856Z,22.42
2023-05-29T18:59:46.889Z,22.33
2023-05-29T19:02:14.444Z,22.32
2023-05-29T19:04:42.081Z,22.23
2023-05-29T19:07:09.379Z,22.18
2023-05-29T19:09:36.786Z,22.16
2023-05-29T19:12:05.019Z,22.15
2023-05-29T19:14:32.422Z,22.07
2023-05-29T19:16:59.708Z,22.07
2023-05-29T19:19:27.469Z,22.08
2023-05-29T19:21:54.700Z,22.10
2023-05-29T19:24:22.055Z,22.10
2023-05-29T19:26:49.552Z,22.13
2023-05-29T19:29:18.723Z,22.15
2023-05-29T19:31:48.264Z,22.06
2023-05-29T19:34:16.733Z,21.96
2023-05-29T19:36:44.204Z,21.84
2023-05-29T19:39:12.776Z,21.71
2023-05-29T19:41:41.892Z,21.60
2023-05-29T19:44:09.512Z,21.53
2023-05-29T19:46:37.568Z,21.50
2023-05-29T19:49:05.889Z,21.55
2023-05-29T19:51:34.424Z,21.50
2023-05-29T19:54:01.757Z,21.54
2023-05-29T19:56:29.914Z,21.53
2023-05-29T19:58:57.292Z,21.47
2023-05-29T20:01:24.939Z,21.47
2023-05-29T20:03:52.971Z,21.48
2023-05-29T20:06:20.959Z,21.51
2023-05-29T20:08:48.279Z,21.47
2023-05-29T20:11:16.088Z,21.48
2023-05-29T20:13:43.368Z,21.37
2023-05-29T20:16:10.809Z,21.30
2023-05-29T20:18:38.553Z,21.19
2023-05-29T20:21:05.765Z,21.08
2023-05-29T20:23:33.057Z,21.07
2023-05-29T20:26:00.652Z,21.01
2023-05-29T20:28:29.380Z,20.87
2023-05-29T20:30:56.920Z,20.77
2023-05-29T20:33:24.704Z,20.73
2023-05-29T20:35:51.963Z,20.71
2023-05-29T20:38:19.131Z,20.70
2023-05-29T20:40:52.717Z,20.71
2023-05-29T20:43:23.293Z,20.70
2023-05-29T20:45:52.933Z,20.63
2023-05-29T20:48:20.733Z,20.59
2023-05-29T20:50:48.871Z,20.59
2023-05-29T20:53:16.450Z,20.54
2023-05-29T20:55:43.739Z,20.57
2023-05-29T20:58:11.242Z,20.52
2023-05-29T21:00:39.145Z,20.50
2023-05-29T21:03:07.116Z,20.40
2023-05-29T21:05:36.374Z,20.26
2023-05-29T21:08:04.228Z,20.27
2023-05-29T21:10:31.468Z,20.16
2023-05-29T21:13:02.296Z,20.05
2023-05-29T21:15:32.236Z,20.05
2023-05-29T21:17:59.397Z,19.97
2023-05-29T21:20:26.594Z,19.92
2023-05-29T21:22:54.872Z,19.92
2023-05-29T21:25:22.351Z,19.80
2023-05-29T21:27:49.507Z,19.79
2023-05-29T21:30:17.617Z,19.85
2023-05-29T21:32:44.966Z,19.83
2023-05-29T21:35:13.540Z,19.85
2023-05-29T21:37:41.044Z,19.80
2023-05-29T21:40:11.219Z,19.74
2023-05-29T21:42:38.550Z,19.71
2023-05-29T21:45:06.709Z,19.64
2023-05-29T21:47:33.904Z,19.69
2023-05-29T21:50:01.134Z,19.63
2023-05-29T21:52:28.582Z,19.52
2023-05-29T21:54:55.700Z,19.33
2023-05-29T21:57:23.003Z,19.04
2023-05-29T21:59:50.761Z,18.93
2023-05-29T22:05:48.108Z,18.87
2023-05-29T22:11:49.539Z,18.89
2023-05-29T22:14:17.564Z,18.76
2023-05-29T22:16:48.867Z,18.66
2023-05-29T22:19:16.665Z,18.65
2023-05-29T22:21:44.264Z,18.60
2023-05-29T22:24:12.469Z,18.55
2023-05-29T22:26:40.161Z,18.51
2023-05-29T22:29:07.910Z,18.50
2023-05-29T22:31:35.324Z,18.41
2023-05-29T22:34:02.886Z,18.35
2023-05-29T22:36:30.052Z,18.25
2023-05-29T22:38:57.242Z,18.25
2023-05-29T22:41:24.754Z,18.28
2023-05-29T22:43:54.557Z,18.29
2023-05-29T22:46:23.222Z,18.33
2023-05-29T22:48:50.789Z,18.35
2023-05-29T22:51:17.925Z,18.20
2023-05-29T22:53:48.087Z,18.04
2023-05-29T22:56:17.242Z,18.12
2023-05-29T22:58:44.452Z,18.11
2023-05-29T23:01:11.876Z,18.07
2023-05-29T23:03:39.445Z,17.81
2023-05-29T23:06:07.998Z,18.02
2023-05-29T23:08:35.343Z,18.04
2023-05-29T23:11:02.797Z,18.05
2023-05-29T23:13:29.938Z,17.97
2023-05-29T23:15:57.226Z,17.97
2023-05-29T23:18:25.335Z,17.83
2023-05-29T23:20:52.877Z,17.69
2023-05-29T23:23:20.228Z,17.58
2023-05-29T23:25:48.100Z,17.57
2023-05-29T23:28:15.355Z,17.51
2023-05-29T23:30:42.478Z,17.45
2023-05-29T23:33:10.088Z,17.50
2023-05-29T23:35:37.318Z,17.55
2023-05-29T23:38:05.527Z,17.58
2023-05-29T23:40:33.218Z,17.50
2023-05-29T23:43:01.043Z,17.48
2023-05-29T23:45:28.233Z,17.51
2023-05-29T23:47:56.219Z,17.44
2023-05-29T23:50:23.672Z,17.39
2023-05-29T23:52:52.010Z,17.39
2023-05-29T23:55:19.438Z,17.33
2023-05-29T23:57:46.585Z,17.32
